Wetterdaten: aktuell Sonntag, 20.10.2019 16:45
Datum Zeit Temperatur Temp. Nord Temp. Sd Luftfeuchte Luftdruck Regen Wind Richtung Richtung Sonnenschein Helligkeit Taupunkt Windchill
20.10.2019 16:45 21,8 C 19,2 C 20,5 C 70 % 1003,5 hPa 0,0 l/m 0,3 km/h (0 Bft) S 175 42 min 16,2 klux 14,8 C 21,8 C
20.10.2019 15:45 22,1 C 18,7 C 20,3 C 73 % 1003,6 hPa 0,0 l/m 5,0 km/h (1 Bft) O-NO22.5 65 57 min 38,0 klux 15,3 C 22,1 C
20.10.2019 14:45 21,4 C 17,7 C 19,4 C 76 % 1003,8 hPa 0,0 l/m 7,3 km/h (2 Bft) O-NO22.5 60 57 min 51,5 klux 15,1 C 21,1 C
20.10.2019 13:45 19,6 C 16,0 C 17,4 C 82 % 1004,4 hPa 0,0 l/m 3,0 km/h (1 Bft) O 85 51 min 63,8 klux 14,3 C 19,6 C
20.10.2019 12:45 16,1 C 14,2 C 14,8 C 90 % 1006,2 hPa 0,0 l/m 6,8 km/h (2 Bft) S-SO45 155 24 min 45,9 klux 13,2 C 15,9 C
20.10.2019 11:45 14,4 C 13,1 C 13,8 C 93 % 1006,5 hPa 0,0 l/m 7,3 km/h (2 Bft) O-SO67.5 120 51 min 30,1 klux 12,7 C 13,9 C
20.10.2019 10:45 12,4 C 11,1 C 11,3 C 97 % 1007,3 hPa 0,0 l/m 0,0 km/h (0 Bft) SW 225 39 min 34,4 klux 10,8 C 12,4 C
20.10.2019 09:45 9,1 C 9,5 C 9,2 C 97 % 1007,9 hPa 0,0 l/m 6,0 km/h (2 Bft) W-SW 255 21 min 14,5 klux 8,7 C 9,1 C
20.10.2019 08:45 8,6 C 9,1 C 8,7 C 97 % 1008,1 hPa 0,0 l/m 6,3 km/h (2 Bft) W22.5 260 0 min 4,98 klux 8,3 C 8,6 C
20.10.2019 07:45 8,8 C 9,4 C 9,0 C 96 % 1008,0 hPa 0,0 l/m 8,1 km/h (2 Bft) W-SW45 250 0 min 200 lux 8,4 C 7,5 C
20.10.2019 06:45 9,4 C 9,8 C 9,5 C 96 % 1007,8 hPa 0,0 l/m 6,8 km/h (2 Bft) W-SW22.5 255 0 min 0 lux 8,9 C 9,1 C
20.10.2019 05:45 9,4 C 9,9 C 9,5 C 96 % 1007,8 hPa 0,0 l/m 4,6 km/h (1 Bft) W 260 0 min 0 lux 8,9 C 9,4 C
20.10.2019 04:45 9,6 C 10,0 C 9,6 C 96 % 1007,8 hPa 0,0 l/m 5,7 km/h (1 Bft) W-SW22.5 245 0 min 0 lux 9,0 C 9,6 C
20.10.2019 03:45 9,7 C 10,2 C 9,8 C 96 % 1007,7 hPa 0,0 l/m 5,6 km/h (1 Bft) W 265 0 min 0 lux 9,2 C 9,7 C
20.10.2019 02:45 10,2 C 10,5 C 10,1 C 96 % 1007,6 hPa 0,0 l/m 0,1 km/h (0 Bft) W-SW 250 0 min 0 lux 9,5 C 10,2 C
20.10.2019 01:45 10,5 C 10,8 C 10,4 C 96 % 1007,5 hPa 0,0 l/m 0,4 km/h (0 Bft) NO 35 0 min 0 lux 9,8 C 10,5 C
20.10.2019 00:45 10,8 C 10,9 C 10,5 C 96 % 1008,6 hPa 1,1 l/m 0,0 km/h (0 Bft) N-NO 25 0 min 0 lux 9,9 C 10,8 C
19.10.2019 23:45 10,8 C 10,8 C 10,4 C 96 % 1008,6 hPa 2,2 l/m 4,0 km/h (1 Bft) O-SO67.5 115 0 min 0 lux 9,8 C 10,8 C
19.10.2019 22:45 10,8 C 10,8 C 10,5 C 96 % 1008,6 hPa 2,2 l/m 7,2 km/h (2 Bft) O-NO22.5 60 0 min 0 lux 9,9 C 10,2 C
19.10.2019 21:45 11,0 C 10,9 C 10,6 C 96 % 1009,7 hPa 2,5 l/m 0,6 km/h (0 Bft) W-SW 240 0 min 0 lux 10,0 C 11,0 C
19.10.2019 20:45 11,0 C 11,0 C 10,7 C 96 % 1008,5 hPa 1,8 l/m 0,4 km/h (0 Bft) N 355 0 min 0 lux 10,1 C 11,0 C
19.10.2019 19:45 11,2 C 11,1 C 10,8 C 95 % 1008,5 hPa 0,7 l/m 3,9 km/h (1 Bft) S-SW 205 0 min 0 lux 10,0 C 11,2 C
19.10.2019 18:45 11,2 C 11,3 C 10,9 C 95 % 1008,5 hPa 0,4 l/m 8,7 km/h (2 Bft) S22.5 185 0 min 28 lux 10,1 C 9,7 C
19.10.2019 17:45 11,4 C 11,6 C 11,2 C 95 % 1008,4 hPa 1,4 l/m 6,7 km/h (2 Bft) S22.5 175 0 min 1,33 klux 10,4 C 11,2 C
19.10.2019 17:00 11,7 C 11,8 C 11,5 C 95 % 1008,3 hPa 0,0 l/m 0,3 km/h (0 Bft) S 170 0 min 2,69 klux 10,7 C 11,7 C
_ Min-Zeit 08:42 08:18 08:42 16:42 16:06 - 18:03 - - - - 08:00 07:57
Minimum _ 8,5 C 9,1 C 8,7 C 68 % 1003,4 hPa - 0,0 km/h (0 Bft) - - - - 8,2 C 5,2 C
_ Max-Zeit 16:36 16:33 16:06 08:03 22:39 17:03 17:12 - - 08:51 12:06 15:33 16:36
Maximum _ 22,6 C 19,2 C 20,8 C 97 % 1009,7 hPa 0,4 l/m 12,2 km/h
S (2 Bft)
- - 3 min 67,6 klux 15,7 C 22,6 C
Durchschnitt _ 12,3 C 11,8 C 11,9 C 93 % 1007,3 hPa #12,2 l/m 4,2 km/h (1 Bft) W-SW - #5:42 h 13,2 klux 10,6 C 12,1 C